createdAt,value
2022-09-20T00:01:42.191Z,5.43
2022-09-20T00:06:20.121Z,7.53
2022-09-20T00:11:01.687Z,4.63
2022-09-20T00:15:07.323Z,7.07
2022-09-20T00:19:17.582Z,4.97
2022-09-20T00:23:21.255Z,7.47
2022-09-20T00:27:55.534Z,10.87
2022-09-20T00:32:00.345Z,8.88
2022-09-20T00:36:03.935Z,8.85
2022-09-20T00:40:10.154Z,5.43
2022-09-20T00:44:42.791Z,7.87
2022-09-20T00:49:17.095Z,4.70
2022-09-20T00:53:47.801Z,6.57
2022-09-20T00:57:51.512Z,6.45
2022-09-20T01:02:31.780Z,4.03
2022-09-20T01:07:05.184Z,7.40
2022-09-20T01:11:09.831Z,9.38
2022-09-20T01:15:14.544Z,11.68
2022-09-20T01:19:48.507Z,7.22
2022-09-20T01:24:02.120Z,6.72
2022-09-20T01:28:06.946Z,6.75
2022-09-20T01:32:14.119Z,8.50
2022-09-20T01:36:44.856Z,6.30
2022-09-20T01:41:24.865Z,5.55
2022-09-20T01:45:33.391Z,8.40
2022-09-20T01:49:46.060Z,4.88
2022-09-20T01:54:22.687Z,7.47
2022-09-20T01:59:22.163Z,5.95
2022-09-20T02:04:07.431Z,3.03
2022-09-20T02:09:05.129Z,3.80
2022-09-20T02:13:18.056Z,7.00
2022-09-20T02:17:50.343Z,8.52
2022-09-20T02:22:04.975Z,11.55
2022-09-20T02:26:48.573Z,5.70
2022-09-20T02:30:59.137Z,5.45
2022-09-20T02:35:16.363Z,5.20
2022-09-20T02:39:44.236Z,6.77
2022-09-20T02:43:55.829Z,8.32
2022-09-20T02:48:26.972Z,10.10
2022-09-20T02:52:37.836Z,7.15
2022-09-20T02:57:13.465Z,8.32
2022-09-20T03:01:32.395Z,7.15
2022-09-20T03:05:49.275Z,9.57
2022-09-20T03:10:20.450Z,13.75
2022-09-20T03:14:29.581Z,8.38
2022-09-20T03:19:05.386Z,9.33
2022-09-20T03:23:22.353Z,12.50
2022-09-20T03:27:52.027Z,10.27
2022-09-20T03:32:13.364Z,10.60
2022-09-20T03:36:41.241Z,10.73
2022-09-20T03:41:23.434Z,6.75
2022-09-20T03:46:04.406Z,9.38
2022-09-20T03:50:22.226Z,6.70
2022-09-20T03:54:54.250Z,12.48
2022-09-20T03:59:40.930Z,7.97
2022-09-20T04:04:09.131Z,11.00
2022-09-20T04:08:49.793Z,11.27
2022-09-20T04:13:32.299Z,12.27
2022-09-20T04:18:04.003Z,12.50
2022-09-20T04:22:09.586Z,14.83
2022-09-20T04:26:13.214Z,13.43
2022-09-20T04:30:47.743Z,6.57
2022-09-20T04:35:18.022Z,15.18
2022-09-20T04:39:42.492Z,10.10
2022-09-20T04:44:35.587Z,15.70
2022-09-20T04:49:27.479Z,9.40
2022-09-20T04:54:07.372Z,18.20
2022-09-20T04:59:05.209Z,20.70
2022-09-20T05:03:54.804Z,14.10
2022-09-20T05:08:39.300Z,21.85
2022-09-20T05:13:25.990Z,16.33
2022-09-20T05:18:12.827Z,22.77
2022-09-20T05:22:53.392Z,15.15
2022-09-20T05:27:29.310Z,19.98
2022-09-20T05:31:40.698Z,22.65
2022-09-20T05:36:15.350Z,20.85
2022-09-20T05:40:51.168Z,16.67
2022-09-20T05:45:24.284Z,17.75
2022-09-20T05:49:42.903Z,24.35
2022-09-20T05:54:25.503Z,24.80
2022-09-20T05:59:13.988Z,20.05
2022-09-20T06:03:55.899Z,17.75
2022-09-20T06:08:36.196Z,11.15
2022-09-20T06:12:53.019Z,22.80
2022-09-20T06:17:04.213Z,15.15
2022-09-20T06:21:41.321Z,16.27
2022-09-20T06:25:50.810Z,15.40
2022-09-20T06:30:24.282Z,17.63
2022-09-20T06:35:00.665Z,17.80
2022-09-20T06:40:08.691Z,15.35
2022-09-20T06:44:45.371Z,16.27
2022-09-20T06:49:22.600Z,9.25
2022-09-20T06:54:00.165Z,13.23
2022-09-20T06:58:37.011Z,22.67
2022-09-20T07:03:13.950Z,11.98
2022-09-20T07:07:57.579Z,14.35
2022-09-20T07:12:00.881Z,11.57
2022-09-20T07:16:05.008Z,10.52
2022-09-20T07:20:39.540Z,15.30
2022-09-20T07:24:45.075Z,9.32
2022-09-20T07:29:18.967Z,8.52
2022-09-20T07:33:56.125Z,8.90
2022-09-20T07:38:33.187Z,11.90
2022-09-20T07:43:11.538Z,14.52
2022-09-20T07:51:44.863Z,13.20
2022-09-20T07:56:23.747Z,8.07
2022-09-20T08:01:00.360Z,14.20
2022-09-20T08:05:35.877Z,13.55
2022-09-20T08:10:09.851Z,8.82
2022-09-20T08:14:46.851Z,11.63
2022-09-20T08:18:53.003Z,12.18
2022-09-20T08:23:27.162Z,8.48
2022-09-20T08:28:04.415Z,9.77
2022-09-20T17:29:00.321Z,1.30
2022-09-20T17:33:03.719Z,3.63
2022-09-20T17:37:13.321Z,1.65
2022-09-20T17:41:24.339Z,3.17
2022-09-20T17:45:28.875Z,4.47
2022-09-20T17:49:38.328Z,3.05
2022-09-20T17:53:48.340Z,3.58
2022-09-20T17:58:00.394Z,7.85
2022-09-20T18:02:04.945Z,3.83
2022-09-20T18:06:24.961Z,2.08
2022-09-20T18:10:35.336Z,2.17
2022-09-20T18:14:46.345Z,1.58
2022-09-20T18:18:51.824Z,2.55
2022-09-20T18:23:01.321Z,3.25
2022-09-20T18:27:11.324Z,5.85
2022-09-20T18:31:21.383Z,6.93
2022-09-20T18:35:34.321Z,12.32
2022-09-20T18:39:44.335Z,5.30
2022-09-20T18:43:54.685Z,4.68
2022-09-20T18:48:05.320Z,4.35
2022-09-20T18:52:12.329Z,6.18
2022-09-20T18:56:31.429Z,3.90
2022-09-20T19:00:41.394Z,2.75
2022-09-20T19:05:05.303Z,3.10
2022-09-20T19:09:16.225Z,2.85
2022-09-20T19:13:36.289Z,27.17
2022-09-20T19:18:00.304Z,3.17
2022-09-20T19:22:20.311Z,6.68
2022-09-20T19:26:32.303Z,3.50
2022-09-20T19:30:49.306Z,3.55
2022-09-20T19:34:55.895Z,5.45
2022-09-20T19:39:16.348Z,7.63
2022-09-20T19:43:38.186Z,3.35
2022-09-20T19:47:58.330Z,8.00
2022-09-20T19:52:11.357Z,6.00
2022-09-20T19:56:31.306Z,6.33
2022-09-20T20:00:43.294Z,8.17
2022-09-20T20:04:46.935Z,5.13
2022-09-20T20:09:02.305Z,5.40
2022-09-20T20:13:40.323Z,11.73
2022-09-20T20:18:02.324Z,12.30
2022-09-20T20:22:19.320Z,7.70
2022-09-20T20:26:24.229Z,8.33
2022-09-20T20:30:34.341Z,7.90
2022-09-20T20:34:52.337Z,7.03
2022-09-20T20:38:55.512Z,4.57
2022-09-20T20:43:08.332Z,5.87
2022-09-20T20:47:18.334Z,6.80
2022-09-20T20:51:30.299Z,9.33
2022-09-20T20:55:40.330Z,7.97
2022-09-20T20:59:50.310Z,7.00
2022-09-20T21:04:01.316Z,8.70
2022-09-20T21:08:05.925Z,4.87
2022-09-20T21:12:16.312Z,9.67
2022-09-20T21:16:21.705Z,5.20
2022-09-20T21:20:32.306Z,5.80
2022-09-20T21:24:43.306Z,5.20
2022-09-20T21:28:55.330Z,6.97
2022-09-20T21:33:12.344Z,4.37
2022-09-20T21:37:22.302Z,6.93
2022-09-20T21:41:36.308Z,8.77
2022-09-20T21:45:47.406Z,7.73
2022-09-20T21:49:57.376Z,8.20
2022-09-20T21:54:08.442Z,7.00
2022-09-20T21:58:20.410Z,5.87
2022-09-20T22:02:30.354Z,5.53
2022-09-20T22:06:42.440Z,4.77
2022-09-20T22:11:02.289Z,7.07
2022-09-20T22:15:14.309Z,6.73
2022-09-20T22:19:27.325Z,6.67
2022-09-20T22:23:30.871Z,5.90
2022-09-20T22:27:40.300Z,4.60
2022-09-20T22:32:00.336Z,4.70
2022-09-20T22:36:10.309Z,6.00
2022-09-20T22:40:20.369Z,5.83
2022-09-20T22:44:30.323Z,10.20
2022-09-20T22:48:42.309Z,9.87
2022-09-20T22:52:52.293Z,4.97
2022-09-20T22:57:02.356Z,7.10
2022-09-20T23:01:17.499Z,5.53
2022-09-20T23:05:29.328Z,6.00
2022-09-20T23:09:39.328Z,5.60
2022-09-20T23:13:49.338Z,3.47
2022-09-20T23:17:59.305Z,6.73
2022-09-20T23:22:10.317Z,5.33
2022-09-20T23:26:16.140Z,4.63
2022-09-20T23:30:26.351Z,6.83
2022-09-20T23:34:42.299Z,3.60
2022-09-20T23:38:47.754Z,6.20
2022-09-20T23:42:57.311Z,5.00
2022-09-20T23:47:07.306Z,10.43
2022-09-20T23:51:18.308Z,5.67
2022-09-20T23:55:29.323Z,5.20
2022-09-20T23:59:39.287Z,5.03
